TFM - Tactical Decision Aid (Experimental) INFO Settings
ID: Runway Winds: CIG/VIS Threshold: METAR Board: Map:

KMKL - Jackson-Mc Kellar Sipes Rgnl

Updated at: 2259 UTC 20 Feb 2018
Latest TAF at: 1732 UTC 20 Feb 2018

TAF Board

Time2253Z20/23Z21/00Z21/01Z21/02Z21/03Z21/04Z21/05Z21/06Z21/07Z21/08Z21/09Z21/10Z21/11Z
TypeOBSPRVLPRVLPRVLPRVLPRVLPRVLPRVLPRVLPRVLPRVLPRVL
  [TEMP]  
PRVL
  [TEMP]  
PRVL
  [TEMP]  
VIS10>6>6>6>6>6>6>6>6>6>66
  [2]  
6
  [2]  
6
  [2]  
CIG807070707070707070707035
  [8]  
35
  [8]  
35
  [8]  
CoverOVCBKNBKNBKNBKNBKNBKNBKNBKNBKNBKNOVC
  [OVC]  
OVC
  [OVC]  
OVC
  [OVC]  
FltCatVFRVFRVFRVFRVFRVFRVFRVFRVFRVFRVFRVFR
  [IFR]  
VFR
  [IFR]  
VFR
  [IFR]  
WX-----------------------SHRA VCTS
  [SHRA]  
-SHRA VCTS
  [SHRA]  
-SHRA VCTS
  [SHRA]  
WDir170180170170170170170170170170170200
[200]
200
[200]
200
[200]
WSpd82010101010101010101010
  [10]  
10
  [10]  
10
  [10]  
WGst173017171717171717171720
  [20]  
20
  [20]  
20
  [20]  
TAF
KMKL 201732Z 2018/2118 18020G30KT P6SM SCT035 BKN070 BKN250
  FM210000 17010G17KT P6SM SCT035 BKN070 BKN250
  FM210900 20010G20KT 6SM -SHRA VCTS BKN035CB OVC070
  TEMPO 2109/2113 2SM SHRA OVC008
  FM211300 02010G15KT 3SM -RA OVC005
  FM211700 02012G18KT 2SM RA OVC003


METAR
KMKL 202253Z 17008G17KT 10SM OVC080 24/17 A3010 RMK AO2 SLP189 T02390167
KMKL 202153Z 19016G25KT 10SM OVC080 24/17 A3010 RMK AO2 PK WND 18026/2107 SLP188 T02440167

TAF/METAR Board Legend

Potential Impact
  None Marginal Slight Moderate High
Visibility (sm) >5 3≤X≤5 2≤X<3 0.5≤X<2 <0.5
Ceiling (100 ft) >30 10≤X≤30 6≤X<10 2≤X<6 <2
Wind Speed (kt) <10 10≤X<20 20≤X<30 ≥30
Wind Gust (kt) <15 15≤X<25 25≤X<35 ≥35
Weather No Wx Reported VCTS -TS,-FZRA TS,FZRA +TS,+FZRA





Page loaded:  22:59 UTC  |   02:59 PM Pacific  |   03:59 PM Mountain  |   04:59 PM Central  |   05:59 PM Eastern